ADDS METAR Data INFO
IDs: Format: Raw Decoded Include TAF

Data at: 1944 UTC 17 Feb 2018

KPIE 171853Z 22010KT 10SM CLR 27/13 A3016 RMK AO2 SLP214 T02720128 $
KPIE 171753Z 20009KT 10SM FEW020 27/13 A3018 RMK AO2 SLP220 60000 T02670128 10267 20183 58015 $
KPIE 171653Z 14006KT 10SM FEW015 24/17 A3021 RMK AO2 SLP230 T02440167 $
KPIE 171631Z 00000KT 10SM FEW015 23/17 A3022 RMK AO2 T02330172 $
KPIE 171553Z 20006KT 10SM BKN015 23/19 A3023 RMK AO2 SLP237 T02330189 $
KPIE 171535Z 21005KT 10SM BKN014 22/19 A3023 RMK AO2 T02220189 $
KPIE 171453Z 20007KT 10SM OVC009 21/19 A3023 RMK AO2 SLP235 60000 T02110194 51015 $
KPIE 171423Z 18005KT 9SM OVC004 20/20 A3022 RMK AO2 T02000200 $
KPIE 171410Z 18005KT 2 1/2SM R18L/5000VP6000FT BR OVC002 19/19 A3022 RMK AO2 T01940194 $
KPIE 171353Z 20004KT 3/4SM R18L/3000VP6000FT BR OVC002 19/19 A3022 RMK AO2 SLP231 T01940194 $
KPIE 171334Z 19003KT 1/4SM R18L/1400V4500FT FG VV002 19/19 A3021 RMK AO2 T01940194 $
KPIE 171253Z 00000KT M1/4SM R18L/1000V1600FT FG VV002 19/19 A3020 RMK AO2 RAB07E19 SLP225 P0000 T01890189 $
KPIE 171204Z 00000KT 1/4SM R18L/1000V1800FT FG VV002 18/18 A3018 RMK AO2 T01830183 $
KPIE 171153Z 21003KT 1/4SM R18L/1600V5500FT FG VV002 18/18 A3018 RMK AO2 SLP220 60001 70001 T01830183 10189 20178 53009 $
KPIE 171124Z 32003KT 1/4SM R18L/1800V3500FT FG VV001 18/18 A3017 RMK AO2 T01780178 $
KPIE 171053Z 00000KT 1/4SM R18L/1200V1800FT FG VV001 18/18 A3016 RMK AO2 SLP214 T01780178 $
KPIE 170953Z AUTO 25003KT 1/4SM R18L/2800V5000FT FG VV001 19/19 A3016 RMK AO2 RAB30E48 SLP211 P0000 T01890189 $
KPIE 170921Z AUTO 19006KT 1/4SM R18L/1000V1400FT FG VV001 19/19 A3015 RMK AO2 T01890189 $
KPIE 170853Z AUTO 18005KT 1/4SM R18L/2400V3000FT FG VV001 18/18 A3016 RMK AO2 SLP211 60001 T01780178 56004 $
KPIE 170850Z AUTO 18003KT 1/4SM R18L/2000V3000FT FG VV001 18/18 A3016 RMK AO2 $
KPIE 170842Z AUTO 19003KT 1/4SM R18L/1400V2200FT FG VV001 18/18 A3016 RMK AO2 T01830183 $
KPIE 170811Z AUTO 21003KT 1/4SM R18L/2200VP6000FT FG VV002 18/18 A3016 RMK AO2 T01780178 $
KPIE 170802Z AUTO 00000KT 1 3/4SM R18L/5500VP6000FT BR BKN003 18/18 A3016 RMK AO2 VIS 1V4 T01780178 $
KPIE 170753Z AUTO 22003KT 2 1/2SM BR SCT003 18/18 A3016 RMK AO2 VIS 1 1/2V4 RAB08E36 SLP213 P0001 T01780178 $
KPIE 170751Z AUTO 24003KT 2 1/2SM BR FEW003 18/18 A3016 RMK AO2 RAB08E36 P0001 $
KPIE 170731Z AUTO 00000KT 3SM -RA BR CLR 18/18 A3017 RMK AO2 RAB08 P0000 T01830183 $
KPIE 170728Z AUTO 22003KT 1 1/4SM -RA BR FEW005 18/18 A3017 RMK AO2 RAB08 P0000 T01830183 $
KPIE 170724Z AUTO 22003KT 3/4SM R18L/P6000FT -RA BR VV005 18/18 A3017 RMK AO2 RAB08 P0000 T01830183 $
KPIE 170719Z AUTO 24003KT 1SM R18L/P6000FT -RA BR VV004 19/18 A3017 RMK AO2 RAB08 P0000 T01890183 $
KPIE 170711Z AUTO 24003KT 2SM -RA BR SCT004 19/19 A3017 RMK AO2 RAB08 P0000 T01890189 $
KPIE 170653Z AUTO 00000KT 1/4SM R18L/P6000FT FG VV004 18/18 A3017 RMK AO2 SLP215 T01830183 $
KPIE 170650Z AUTO 00000KT 1/4SM R18L/P6000FT FG VV004 19/18 A3017 RMK AO2 $
KPIE 170641Z AUTO 18004KT 1/2SM R18L/P6000FT FG CLR 19/19 A3017 RMK AO2 T01890189 $
KPIE 170630Z AUTO 18003KT 1 3/4SM BR CLR 19/19 A3017 RMK AO2 T01890189 $
KPIE 170553Z AUTO 21004KT 6SM BR CLR 18/18 A3018 RMK AO2 SLP219 60000 T01830183 10217 20183 58007 $
KPIE 170453Z AUTO 19003KT 6SM BR CLR 19/19 A3019 RMK AO2 RAB33E48 SLP222 P0000 T01890189 402670167 $
KPIE 170432Z AUTO 19003KT 3SM BR CLR 19/19 A3019 RMK AO2 T01890189 $
KPIE 170420Z AUTO 00000KT 1 3/4SM BR CLR 18/18 A3019 RMK AO2 T01830183 $
KPIE 170353Z 19003KT 8SM CLR 19/19 A3019 RMK AO2 SLP224 T01890189 $
KPIE 170253Z 20003KT 9SM CLR 19/19 A3020 RMK AO2 SLP226 T01940189 52008 $
KPIE 170153Z 20004KT 10SM CLR 20/19 A3019 RMK AO2 SLP222 T02000189 $
KPIE 170053Z 23003KT 10SM CLR 21/19 A3019 RMK AO2 SLP222 T02060189 $
KPIE 162353Z 23006KT 10SM CLR 22/19 A3018 RMK AO2 SLP218 T02170189 10261 20217 53001 $
KPIE 162253Z 27009KT 10SM FEW025 23/18 A3018 RMK AO2 SLP218 T02330178 $
KPIE 162153Z 28008KT 10SM CLR 25/17 A3017 RMK AO2 SLP216 T02500172 $
KPIE 162053Z 27011KT 10SM SCT040 25/17 A3017 RMK AO2 SLP217 T02500167 56010 $
KPIE 161953Z 28012G18KT 10SM SCT045 26/17 A3018 RMK AO2 SLP218 T02610172 $
KPIE 161853Z COR 27012G18KT 10SM CLR 26/16 A3019 RMK AO2 SLP222 T02560161 $
KPIE 161753Z 24013KT 10SM CLR 26/17 A3020 RMK AO2 SLP227 60000 T02610167 10267 20167 58007 $
KPIE 161653Z 21009KT 10SM CLR 26/17 A3022 RMK AO2 SLP233 T02610167 $
KPIE 161553Z 22010KT 10SM CLR 25/16 A3024 RMK AO2 SLP239 T02500156 $
KPIE 161453Z 20008KT 10SM CLR 24/17 A3023 RMK AO2 SLP235 60000 T02390172 51010 $
KPIE 161353Z 17006KT 10SM CLR 21/19 A3022 RMK AO2 SLP232 T02110189 $
KPIE 161253Z 17005KT 6SM BR FEW007 19/18 A3021 RMK AO2 RAE04 SLP229 P0000 T01890183 $
KPIE 161153Z 13003KT 6SM -RA BR FEW007 17/17 A3020 RMK AO2 RAB38 SLP225 P0000 60000 T01720172 10200 20172 55000 $
KPIE 161053Z 00000KT 6SM BR FEW007 18/17 A3019 RMK AO2 SLP223 T01780172 $
KPIE 161044Z AUTO 00000KT 4SM BR FEW007 18/18 A3019 RMK AO2 T01780178 $
KPIE 161034Z AUTO 00000KT 2SM BR FEW007 18/18 A3019 RMK AO2 VIS 3/4V5 T01830178 $
KPIE 161023Z AUTO 00000KT 4SM BR SCT007 18/18 A3019 RMK AO2 T01780178 $
KPIE 161015Z AUTO 00000KT 2SM BR SCT007 18/18 A3019 RMK AO2 VIS 1/2V5 T01780178 $
KPIE 161009Z AUTO 00000KT 1 3/4SM BR BKN006 18/17 A3019 RMK AO2 T01780172 $
KPIE 161004Z AUTO 00000KT 4SM BR BKN006 19/19 A3019 RMK AO2 T01890189 $
KPIE 160953Z AUTO 00000KT 8SM BKN004 19/19 A3019 RMK AO2 CIG 003V007 SLP222 T01940189 $
KPIE 160940Z AUTO 00000KT 9SM BKN004 19/19 A3019 RMK AO2 CIG 003V007 T01940189 $
KPIE 160920Z AUTO 00000KT 9SM OVC005 19/19 A3019 RMK AO2 CIG 003V008 T01940189 $
KPIE 160853Z AUTO 06004KT 8SM BKN004 19/19 A3020 RMK AO2 SLP225 T01940189 57009 $
KPIE 160825Z AUTO 02005KT 10SM BKN006 20/19 A3020 RMK AO2 T02000189 $
KPIE 160800Z AUTO 02003KT 10SM FEW006 20/19 A3020 RMK AO2 T02000189 $
KPIE 160753Z AUTO 01004KT 10SM CLR 20/19 A3021 RMK AO2 SLP228 T02000189 $